createdAt,value
2015-02-17T15:52:48.271Z,100958
2015-02-17T15:53:06.273Z,100960
2015-02-17T15:53:24.602Z,100971
2015-02-17T15:53:42.914Z,100958
2015-02-17T15:54:01.369Z,100972
2015-02-17T16:14:50.072Z,100977
2015-02-17T16:15:08.369Z,100978
2015-02-17T16:15:26.060Z,100978
2015-02-17T16:15:44.372Z,100984
2015-02-17T16:16:02.825Z,100978
2015-02-17T16:16:21.138Z,100978
2015-02-17T16:16:38.812Z,100986
2015-02-17T16:16:57.140Z,100978
2015-02-17T16:17:15.452Z,100978
2015-02-17T16:17:33.784Z,100981
2015-02-17T16:17:52.096Z,100989
2015-02-17T16:18:10.409Z,100989
2015-02-17T16:18:28.737Z,100984
2015-02-17T16:18:47.051Z,100986
2015-02-17T16:19:05.379Z,100989
2015-02-17T16:19:23.707Z,100989
2015-02-17T16:19:42.023Z,100984
2015-02-17T16:20:00.335Z,100989
2015-02-17T16:20:18.648Z,100984
2015-02-17T16:20:36.976Z,100986
2015-02-17T16:20:55.291Z,100986
2015-02-17T16:21:13.619Z,100994
2015-02-17T16:21:31.931Z,100994
2015-02-17T16:21:50.261Z,100994
2015-02-17T16:22:07.418Z,100986
2015-02-17T16:22:25.730Z,100986
2015-02-17T16:22:44.043Z,100989
2015-02-17T16:23:02.374Z,100981
2015-02-17T16:23:20.686Z,101000
2015-02-17T16:23:38.358Z,100997
2015-02-17T16:23:56.688Z,100997
2015-02-17T16:24:15.001Z,100991
2015-02-17T16:24:32.673Z,100997
2015-02-17T16:24:51.001Z,100991
2015-02-17T16:25:09.316Z,100991
2015-02-17T16:25:27.644Z,100991
2015-02-17T16:25:45.957Z,100994
2015-02-17T16:26:04.288Z,100994
2015-02-17T16:26:22.600Z,101006
2015-02-17T16:26:40.929Z,100991
2015-02-17T16:26:59.241Z,100988
2015-02-17T16:27:16.914Z,101000
2015-02-17T16:27:35.226Z,100994
2015-02-17T16:27:52.883Z,101006
2015-02-17T16:28:10.542Z,100994
2015-02-17T16:28:28.214Z,100994
2015-02-17T16:28:46.542Z,101012
2015-02-17T16:29:04.854Z,101000
2015-02-17T16:29:23.185Z,101006
2015-02-17T16:29:41.497Z,100997
2015-02-17T16:29:59.825Z,101006
2015-02-17T16:30:18.156Z,101000
2015-02-17T16:30:36.469Z,101009
2015-02-17T16:30:54.781Z,101003
2015-02-17T16:31:13.109Z,101020
2015-02-17T16:31:31.441Z,101006
2015-02-17T16:31:49.753Z,101009
2015-02-17T16:32:08.081Z,101012
2015-02-17T16:32:26.396Z,101023
2015-02-17T16:32:44.724Z,101012
2015-02-17T16:33:03.036Z,101006
2015-02-17T16:33:21.364Z,101020
2015-02-17T16:33:39.038Z,101020
2015-02-17T16:33:57.351Z,101014
2015-02-17T16:34:15.663Z,101017
2015-02-17T16:34:33.994Z,101009
2015-02-17T16:34:52.323Z,101020
2015-02-17T16:35:10.760Z,101023
2015-02-17T16:35:28.432Z,101020
2015-02-17T16:35:46.746Z,101020
2015-02-17T16:36:05.075Z,101020
2015-02-17T16:36:23.403Z,101017
2015-02-17T16:36:41.718Z,101017
2015-02-17T16:37:00.046Z,101014
2015-02-17T16:37:18.359Z,101020
2015-02-17T16:37:36.687Z,101020
2015-02-17T16:37:55.001Z,101026
2015-02-17T16:38:12.017Z,101017
2015-02-17T16:38:30.345Z,101020
2015-02-17T16:38:48.676Z,101020
2015-02-17T16:39:06.989Z,101012
2015-02-17T16:39:25.301Z,101023
2015-02-17T16:39:42.973Z,101023
2015-02-17T16:39:59.992Z,101029
2015-02-17T16:40:17.664Z,101023
2015-02-17T16:40:35.976Z,101011
2015-02-17T16:40:54.305Z,101023
2015-02-17T16:41:12.618Z,101023
2015-02-17T16:41:30.946Z,101032
2015-02-17T16:41:49.258Z,101009
2015-02-17T16:42:06.918Z,101023
2015-02-17T16:42:24.590Z,101020
2015-02-17T16:42:42.918Z,101023
2015-02-17T16:43:01.249Z,101014
2015-02-17T16:43:18.921Z,101020
2015-02-17T16:43:37.233Z,101023
2015-02-17T16:43:55.546Z,101026
2015-02-17T16:44:13.876Z,101032
2015-02-17T16:44:32.188Z,101029
2015-02-17T16:44:50.516Z,101026
2015-02-17T16:45:08.847Z,101026
2015-02-17T16:45:27.175Z,101026
2015-02-17T16:45:45.487Z,101032
2015-02-17T16:46:03.815Z,101035
2015-02-17T16:46:22.146Z,101032
2015-02-17T16:46:40.459Z,101032
2015-02-17T16:46:58.787Z,101032
2015-02-17T16:47:17.102Z,101026
2015-02-17T16:47:35.430Z,101023
2015-02-17T16:47:53.102Z,101032
2015-02-17T16:48:10.758Z,101035
2015-02-17T16:48:29.089Z,101026
2015-02-17T16:48:47.417Z,101023
2015-02-17T16:49:05.730Z,101026
2015-02-17T16:49:24.060Z,101026
2015-02-17T16:49:42.372Z,101032
2015-02-17T16:50:00.825Z,101029
2015-02-17T16:50:19.138Z,101035
2015-02-17T16:50:37.469Z,101029
2015-02-17T16:50:55.797Z,101035
2015-02-17T16:51:14.235Z,101029
2015-02-17T16:51:32.565Z,101032
2015-02-17T16:51:50.893Z,101038
2015-02-17T16:52:09.205Z,101035
2015-02-17T16:52:27.518Z,101035
2015-02-17T16:52:45.973Z,101029
2015-02-17T16:53:04.426Z,101029
2015-02-17T16:53:22.754Z,101032
2015-02-17T16:53:41.070Z,101032
2015-02-17T16:53:59.398Z,101043
2015-02-17T16:54:17.851Z,101037
2015-02-17T16:54:36.179Z,101043
2015-02-17T16:54:54.494Z,101040
2015-02-17T16:55:12.806Z,101035
2015-02-17T16:55:31.134Z,101029
2015-02-17T16:55:49.450Z,101026
2015-02-17T16:56:07.762Z,101026
2015-02-17T16:56:26.090Z,101017
2015-02-17T16:56:44.418Z,101037
2015-02-17T16:57:02.733Z,101040
2015-02-17T16:57:21.045Z,101037
2015-02-17T16:57:39.374Z,101052
2015-02-17T16:57:57.688Z,101037
2015-02-17T16:58:16.016Z,101040
2015-02-17T16:58:34.329Z,101049
2015-02-17T16:58:52.657Z,101046
2015-02-17T16:59:10.989Z,101029
2015-02-17T16:59:29.301Z,101037
2015-02-17T16:59:47.645Z,101043
2015-02-17T17:00:05.943Z,101037
2015-02-17T17:00:24.256Z,101046
2015-02-17T17:00:42.584Z,101037
2015-02-17T17:01:00.896Z,101052
2015-02-17T17:01:19.243Z,101037
2015-02-17T17:01:37.555Z,101049
2015-02-17T17:01:55.868Z,101052
2015-02-17T17:02:14.198Z,101043
2015-02-17T17:02:32.511Z,101043
2015-02-17T17:02:50.839Z,101046
2015-02-17T17:03:09.151Z,101052
2015-02-17T17:03:27.467Z,101061
2015-02-17T17:03:45.795Z,101049
2015-02-17T17:04:04.107Z,101049
2015-02-17T17:04:22.438Z,101052
2015-02-17T17:04:40.751Z,101049
2015-02-17T17:04:59.079Z,101046
2015-02-17T17:05:16.735Z,101040
2015-02-17T17:05:35.050Z,101055
2015-02-17T17:05:53.378Z,101063
2015-02-17T17:06:11.690Z,101055
2015-02-17T17:06:30.146Z,101052
2015-02-17T17:06:48.474Z,101052
2015-02-17T17:07:06.802Z,101055
2015-02-17T17:07:25.114Z,101049
2015-02-17T17:07:43.570Z,101055
2015-02-17T17:08:01.883Z,101049
2015-02-17T17:08:20.195Z,101060
2015-02-17T17:08:37.869Z,101066
2015-02-17T17:08:56.182Z,101055
2015-02-17T17:09:14.494Z,101061
2015-02-17T17:09:32.807Z,101063
2015-02-17T17:09:51.138Z,101063
2015-02-17T17:10:09.450Z,101061
2015-02-17T17:10:27.779Z,101063
2015-02-17T17:10:46.094Z,101075
2015-02-17T17:11:04.422Z,101075
2015-02-17T17:11:22.735Z,101081
2015-02-17T17:11:41.063Z,101066
2015-02-17T17:11:59.377Z,101075
2015-02-17T17:12:17.705Z,101069
2015-02-17T17:12:36.018Z,101075
2015-02-17T17:12:54.332Z,101066
2015-02-17T17:13:12.661Z,101063
2015-02-17T17:13:30.973Z,101066
2015-02-17T17:13:49.317Z,101072
2015-02-17T17:14:07.616Z,101069
2015-02-17T17:14:25.944Z,101072
2015-02-17T17:14:44.256Z,101069
2015-02-17T17:15:02.572Z,101072
2015-02-17T17:15:20.244Z,101072
2015-02-17T17:15:38.556Z,101069
2015-02-17T17:15:56.869Z,101081
2015-02-17T17:16:14.543Z,101075
2015-02-17T17:16:31.558Z,101072
2015-02-17T17:16:49.871Z,101069
2015-02-17T17:17:08.202Z,101069
2015-02-17T17:17:26.530Z,101072
2015-02-17T17:17:44.983Z,101081
2015-02-17T17:18:03.296Z,101084
2015-02-17T17:18:21.611Z,101075
2015-02-17T17:18:39.939Z,101075
2015-02-17T17:18:58.267Z,101078
2015-02-17T17:19:16.582Z,101078
2015-02-17T17:19:34.894Z,101075
2015-02-17T17:19:53.222Z,101078
2015-02-17T17:20:11.551Z,101075
2015-02-17T17:20:29.866Z,101072
2015-02-17T17:20:47.522Z,101081
2015-02-17T17:21:05.850Z,101081
2015-02-17T17:21:23.509Z,101072
2015-02-17T17:21:41.837Z,101078
2015-02-17T17:22:00.149Z,101075
2015-02-17T17:22:18.477Z,101081
2015-02-17T17:22:36.136Z,101072
2015-02-17T17:22:54.464Z,101078
2015-02-17T17:23:12.776Z,101081
2015-02-17T17:23:31.106Z,101078
2015-02-17T17:23:49.419Z,101081
2015-02-17T17:24:07.747Z,101078
2015-02-17T17:24:26.078Z,101078
2015-02-17T17:24:44.375Z,101081
2015-02-17T17:25:02.703Z,101087
2015-02-17T17:25:21.016Z,101081
2015-02-17T17:25:39.346Z,101078
2015-02-17T17:25:57.658Z,101081
2015-02-17T17:26:15.971Z,101078
2015-02-17T17:26:34.302Z,101087
2015-02-17T17:26:52.614Z,101087
2015-02-17T17:27:10.927Z,101081
2015-02-17T17:27:29.382Z,101089
2015-02-17T17:27:47.710Z,101078
2015-02-17T17:28:06.023Z,101089
2015-02-17T17:28:23.695Z,101089
2015-02-17T17:28:42.009Z,101087
2015-02-17T17:28:59.681Z,101100
2015-02-17T17:29:18.009Z,101090
2015-02-17T17:29:36.325Z,101081
2015-02-17T17:29:54.637Z,101087
2015-02-17T17:30:12.965Z,101089
2015-02-17T17:30:30.639Z,101089
2015-02-17T17:30:49.092Z,101084
2015-02-17T17:31:07.405Z,101092
2015-02-17T17:31:25.717Z,101103
2015-02-17T17:31:44.048Z,101089
2015-02-17T17:32:02.376Z,101089
2015-02-17T17:32:20.033Z,101095
2015-02-17T17:32:38.363Z,101106
2015-02-17T17:32:56.675Z,101109
2015-02-17T17:33:15.003Z,101095
2015-02-17T17:33:33.316Z,101092
2015-02-17T17:33:50.974Z,101100
2015-02-17T17:34:09.302Z,101100
2015-02-17T17:34:27.615Z,101092
2015-02-17T17:34:45.946Z,101100
2015-02-17T17:35:03.618Z,101095
2015-02-17T17:35:21.930Z,101095
2015-02-17T17:35:40.258Z,101095
2015-02-17T17:35:58.698Z,101112
2015-02-17T17:36:17.026Z,101103
2015-02-17T17:36:35.354Z,101089
2015-02-17T17:36:53.013Z,101103
2015-02-17T17:37:11.342Z,101103
2015-02-17T17:37:29.654Z,101103
2015-02-17T17:37:47.982Z,101109
2015-02-17T17:38:06.297Z,101109
2015-02-17T17:38:24.609Z,101109
2015-02-17T17:38:42.937Z,101118
2015-02-17T17:39:01.392Z,101103
2015-02-17T17:39:19.705Z,101103
2015-02-17T17:39:38.033Z,101092
2015-02-17T17:39:56.361Z,101100
2015-02-17T17:40:14.677Z,101112
2015-02-17T17:40:32.989Z,101112
2015-02-17T17:40:51.317Z,101109
2015-02-17T17:41:09.633Z,101118
2015-02-17T17:41:27.289Z,101109
2015-02-17T17:41:45.086Z,101118
2015-02-17T17:42:03.414Z,101123
2015-02-17T17:42:21.728Z,101112
2015-02-17T17:42:40.181Z,101120
2015-02-17T17:42:58.509Z,101118
2015-02-17T17:43:16.824Z,101118
2015-02-17T17:43:35.137Z,101112
2015-02-17T17:43:53.465Z,101112
2015-02-17T17:44:11.777Z,101120
2015-02-17T17:44:30.108Z,101126
2015-02-17T17:44:48.436Z,101120
2015-02-17T17:45:06.748Z,101118
2015-02-17T17:45:25.064Z,101120
2015-02-17T17:45:42.736Z,101126
2015-02-17T17:46:01.048Z,101126
2015-02-17T17:46:19.376Z,101123
2015-02-17T17:46:37.691Z,101132
2015-02-17T17:46:56.019Z,101120
2015-02-17T17:47:14.331Z,101129
2015-02-17T17:47:32.647Z,101132
2015-02-17T17:47:50.975Z,101141
2015-02-17T17:48:08.647Z,101126
2015-02-17T17:48:26.975Z,101132
2015-02-17T17:48:45.289Z,101135
2015-02-17T17:49:03.618Z,101129
2015-02-17T17:49:21.930Z,101138
2015-02-17T17:49:39.605Z,101135
2015-02-17T17:49:57.917Z,101135
2015-02-17T17:50:16.246Z,101132
2015-02-17T17:50:34.574Z,101132
2015-02-17T17:50:52.889Z,101135
2015-02-17T17:51:11.217Z,101138
2015-02-17T17:51:29.545Z,101135
2015-02-17T17:51:47.860Z,101144
2015-02-17T17:52:06.188Z,101141
2015-02-17T17:52:24.501Z,101138
2015-02-17T17:52:42.829Z,101135
2015-02-17T17:53:01.144Z,101135
2015-02-17T17:53:19.488Z,101132
2015-02-17T17:53:37.785Z,101141
2015-02-17T17:53:56.099Z,101147
2015-02-17T17:54:14.427Z,101144
2015-02-17T17:54:32.740Z,101144
2015-02-17T17:54:51.193Z,101147
2015-02-17T17:55:09.508Z,101152
2015-02-17T17:55:27.836Z,101150
2015-02-17T17:55:46.148Z,101144
2015-02-17T17:56:04.479Z,101161
2015-02-17T17:56:22.792Z,101155
2015-02-17T17:56:41.104Z,101158
2015-02-17T17:56:59.432Z,101158
2015-02-17T17:57:17.763Z,101152
2015-02-17T17:57:36.075Z,101158
2015-02-17T17:57:53.747Z,101152
2015-02-17T17:58:12.062Z,101161
2015-02-17T17:58:29.719Z,101155
2015-02-17T17:58:48.047Z,101161
2015-02-17T17:59:06.375Z,101152
2015-02-17T17:59:24.689Z,101152
2015-02-17T17:59:43.002Z,101152
2015-02-17T18:00:01.314Z,101155
2015-02-17T18:00:19.646Z,101155
2015-02-17T18:00:37.317Z,101155
2015-02-17T18:00:54.989Z,101164
2015-02-17T18:01:13.427Z,101152
2015-02-17T18:01:31.101Z,101169
2015-02-17T18:01:48.757Z,101172
2015-02-17T18:02:07.085Z,101161
2015-02-17T18:02:25.400Z,101158
2015-02-17T18:02:43.728Z,101172
2015-02-17T18:03:02.040Z,101152
2015-02-17T18:03:20.368Z,101161
2015-02-17T18:03:38.684Z,101172
2015-02-17T18:03:57.012Z,101175
2015-02-17T18:04:15.324Z,101169
2015-02-17T18:04:33.639Z,101172
2015-02-17T18:04:51.967Z,101164
2015-02-17T18:05:10.295Z,101155
2015-02-17T18:05:28.608Z,101166
2015-02-17T18:05:46.939Z,101166
2015-02-17T18:06:05.251Z,101169
2015-02-17T18:06:23.564Z,101180
2015-02-17T18:06:41.895Z,101166
2015-02-17T18:07:00.223Z,101169
2015-02-17T18:07:18.536Z,101169
2015-02-17T18:07:36.207Z,101164
2015-02-17T18:07:54.647Z,101164
2015-02-17T18:08:13.116Z,101169
2015-02-17T18:08:31.428Z,101164
2015-02-17T18:08:49.883Z,101169
2015-02-17T18:09:07.540Z,101169
2015-02-17T18:09:25.852Z,101183
2015-02-17T18:09:44.180Z,101166
2015-02-17T18:10:02.495Z,101169
2015-02-17T18:10:20.823Z,101177
2015-02-17T18:10:38.479Z,101177
2015-02-17T18:10:56.295Z,101169
2015-02-17T18:11:14.607Z,101175
2015-02-17T18:11:32.920Z,101180
2015-02-17T18:11:51.248Z,101177
2015-02-17T18:12:09.562Z,101177
2015-02-17T18:12:27.890Z,101180
2015-02-17T18:12:45.547Z,101177
2015-02-17T18:13:03.878Z,101172
2015-02-17T18:13:22.190Z,101169
2015-02-17T18:13:40.503Z,101183
2015-02-17T18:13:58.831Z,101177
2015-02-17T18:14:17.146Z,101175
2015-02-17T18:14:35.474Z,101169
2015-02-17T18:14:53.803Z,101172
2015-02-17T18:15:12.116Z,101175
2015-02-17T18:15:30.444Z,101177
2015-02-17T18:15:48.757Z,101186
2015-02-17T18:16:07.085Z,101186
2015-02-17T18:16:25.401Z,101180
2015-02-17T18:16:43.729Z,101189
2015-02-17T18:17:02.042Z,101180
2015-02-17T18:17:20.355Z,101180
2015-02-17T18:17:38.684Z,101175
2015-02-17T18:17:57.012Z,101180
2015-02-17T18:18:15.324Z,101183
2015-02-17T18:18:33.656Z,101180
2015-02-17T18:18:51.969Z,101183
2015-02-17T18:19:10.297Z,101183
2015-02-17T18:19:28.611Z,101186
2015-02-17T18:19:46.940Z,101189
2015-02-17T18:20:05.252Z,101189
2015-02-17T18:20:23.565Z,101189
2015-02-17T18:20:41.895Z,101186
2015-02-17T18:21:00.207Z,101186
2015-02-17T18:21:18.535Z,101198
2015-02-17T18:21:36.991Z,101195
2015-02-17T18:21:55.304Z,101195
2015-02-17T18:22:13.632Z,101192
2015-02-17T18:22:31.945Z,101198
2015-02-17T18:22:50.275Z,101198
2015-02-17T18:23:08.587Z,101195
2015-02-17T18:23:26.900Z,101203
2015-02-17T18:23:44.714Z,101198
2015-02-17T18:24:03.027Z,101195
2015-02-17T18:24:21.355Z,101206
2015-02-17T18:24:39.667Z,101198
2015-02-17T18:24:57.983Z,101209
2015-02-17T18:25:16.311Z,101201
2015-02-17T18:25:34.623Z,101203
2015-02-17T18:25:53.079Z,101203
2015-02-17T18:26:11.391Z,101198
2015-02-17T18:26:29.719Z,101203
2015-02-17T18:26:48.032Z,101206
2015-02-17T18:27:06.347Z,101212
2015-02-17T18:27:24.675Z,101201
2015-02-17T18:27:42.988Z,101206
2015-02-17T18:28:01.319Z,101209
2015-02-17T18:28:19.631Z,101206
2015-02-17T18:28:37.944Z,101212
2015-02-17T18:28:56.288Z,101203
2015-02-17T18:29:14.586Z,101206
2015-02-17T18:29:32.914Z,101203
2015-02-17T18:29:51.226Z,101201
2015-02-17T18:30:09.557Z,101212
2015-02-17T18:30:27.870Z,101203
2015-02-17T18:30:45.542Z,101212
2015-02-17T18:31:03.870Z,101206
2015-02-17T18:31:22.185Z,101206
2015-02-17T18:31:40.498Z,101215
2015-02-17T18:31:58.826Z,101218
2015-02-17T18:32:17.140Z,101206
2015-02-17T18:32:35.469Z,101212
2015-02-17T18:32:53.781Z,101206
2015-02-17T18:33:12.109Z,101212
2015-02-17T18:33:30.439Z,101218
2015-02-17T18:33:48.752Z,101215
2015-02-17T18:34:07.064Z,101221
2015-02-17T18:34:25.395Z,101212
2015-02-17T18:34:43.724Z,101206
2015-02-17T18:35:02.036Z,101218
2015-02-17T18:35:20.364Z,101218
2015-02-17T18:35:38.679Z,101209
2015-02-17T18:35:56.351Z,101227
2015-02-17T18:36:14.663Z,101227
2015-02-17T18:36:33.010Z,101227
2015-02-17T18:36:51.338Z,101224
2015-02-17T18:37:09.650Z,101212
2015-02-17T18:37:27.979Z,101212
2015-02-17T18:37:44.981Z,101218
2015-02-17T18:38:03.309Z,101224
2015-02-17T18:38:20.981Z,101215
2015-02-17T18:38:39.296Z,101215
2015-02-17T18:38:57.624Z,101209
2015-02-17T18:39:15.937Z,101215
2015-02-17T18:39:33.593Z,101227
2015-02-17T18:39:51.907Z,101209
2015-02-17T18:40:10.236Z,101218
2015-02-17T18:40:28.548Z,101215
2015-02-17T18:40:46.863Z,101212
2015-02-17T18:41:05.175Z,101203
2015-02-17T18:41:23.503Z,101215
2015-02-17T18:41:41.816Z,101212
2015-02-17T18:42:00.147Z,101221
2015-02-17T18:42:18.459Z,101215
2015-02-17T18:42:36.772Z,101215
2015-02-17T18:42:55.103Z,101215
2015-02-17T18:43:13.415Z,101218
2015-02-17T18:43:31.744Z,101215
2015-02-17T18:43:50.056Z,101212
2015-02-17T18:44:08.386Z,101218
2015-02-17T18:44:26.699Z,101221
2015-02-17T18:44:45.011Z,101221
2015-02-17T18:45:03.341Z,101224
2015-02-17T18:45:21.654Z,101224
2015-02-17T18:45:39.982Z,101229
2015-02-17T18:45:58.310Z,101218
2015-02-17T18:46:15.969Z,101229
2015-02-17T18:46:33.626Z,101229
2015-02-17T18:46:51.954Z,101229
2015-02-17T18:47:10.268Z,101241
2015-02-17T18:47:28.581Z,101229
2015-02-17T18:47:46.909Z,101226
2015-02-17T18:48:05.221Z,101235
2015-02-17T18:48:22.255Z,101227
2015-02-17T18:48:40.567Z,101224
2015-02-17T18:48:58.880Z,101229
2015-02-17T18:49:17.212Z,101224
2015-02-17T18:49:35.524Z,101235
2015-02-17T18:49:53.180Z,101232
2015-02-17T18:50:11.509Z,101229
2015-02-17T18:50:29.823Z,101232
2015-02-17T18:50:48.151Z,101238
2015-02-17T18:51:06.464Z,101229
2015-02-17T18:51:24.795Z,101232
2015-02-17T18:51:43.107Z,101241
2015-02-17T18:52:01.435Z,101235
2015-02-17T18:52:19.748Z,101227
2015-02-17T18:52:38.061Z,101229
2015-02-17T18:52:56.390Z,101235
2015-02-17T18:53:14.702Z,101229
2015-02-17T18:53:33.033Z,101229
2015-02-17T18:53:50.689Z,101247
2015-02-17T18:54:09.064Z,101229
2015-02-17T18:54:27.330Z,101232
2015-02-17T18:54:45.645Z,101241
2015-02-17T18:55:03.957Z,101235
2015-02-17T18:55:22.285Z,101247
2015-02-17T18:55:39.944Z,101235
2015-02-17T18:55:58.398Z,101241
2015-02-17T18:56:16.726Z,101232
2015-02-17T18:56:35.041Z,101241
2015-02-17T18:56:53.354Z,101232
2015-02-17T18:57:11.682Z,101253
2015-02-17T18:57:29.994Z,101238
2015-02-17T18:57:47.668Z,101232
2015-02-17T18:58:05.465Z,101241
2015-02-17T18:58:23.793Z,101229
2015-02-17T18:58:42.092Z,101221
2015-02-17T18:58:59.764Z,101232
2015-02-17T18:59:18.076Z,101238
2015-02-17T18:59:35.764Z,101227
2015-02-17T18:59:54.079Z,101241
2015-02-17T19:00:12.408Z,101241
2015-02-17T19:00:30.720Z,101241
2015-02-17T19:00:49.050Z,101238
2015-02-17T19:01:07.363Z,101241
2015-02-17T19:01:25.691Z,101247
2015-02-17T19:01:44.003Z,101241
2015-02-17T19:02:02.333Z,101235
2015-02-17T19:02:20.646Z,101241
2015-02-17T19:02:38.974Z,101238
2015-02-17T19:02:57.290Z,101241
2015-02-17T19:03:15.649Z,101224
2015-02-17T19:03:33.930Z,101235
2015-02-17T19:03:51.602Z,101232
2015-02-17T19:04:09.917Z,101232
2015-02-17T19:04:27.573Z,101238
2015-02-17T19:04:45.901Z,101229
2015-02-17T19:05:04.231Z,101229
2015-02-17T19:05:22.544Z,101241
2015-02-17T19:05:40.872Z,101232
2015-02-17T19:05:59.184Z,101232
2015-02-17T19:06:16.859Z,101232
2015-02-17T19:06:35.172Z,101229
2015-02-17T19:06:52.843Z,101226
2015-02-17T19:07:10.517Z,101241
2015-02-17T19:07:28.189Z,101232
2015-02-17T19:07:45.845Z,101224
2015-02-17T19:08:04.174Z,101238
2015-02-17T19:08:22.489Z,101238
2015-02-17T19:08:40.817Z,101238
2015-02-17T19:08:59.130Z,101241
2015-02-17T19:09:17.461Z,101241
2015-02-17T19:09:35.117Z,101241
2015-02-17T19:09:53.430Z,101241
2015-02-17T19:10:11.758Z,101235
2015-02-17T19:10:30.072Z,101238
2015-02-17T19:10:48.385Z,101238
2015-02-17T19:11:06.713Z,101241
2015-02-17T19:11:25.027Z,101241
2015-02-17T19:11:42.699Z,101241
2015-02-17T19:12:01.012Z,101241
2015-02-17T19:12:19.340Z,101241
2015-02-17T19:12:37.655Z,101241
2015-02-17T19:12:55.983Z,101241
2015-02-17T19:13:14.296Z,101241
2015-02-17T19:13:32.610Z,101241
2015-02-17T19:13:50.939Z,101241
2015-02-17T19:14:09.251Z,101241
2015-02-17T19:14:26.923Z,101241
2015-02-17T19:14:45.253Z,101241
2015-02-17T19:15:03.566Z,101241
2015-02-17T19:15:21.894Z,101247
2015-02-17T19:15:40.209Z,101232
2015-02-17T19:15:58.522Z,101238
2015-02-17T19:16:16.850Z,101241
2015-02-17T19:16:34.522Z,101241
2015-02-17T19:16:52.837Z,101247
2015-02-17T19:17:11.165Z,101253
2015-02-17T19:17:29.618Z,101241
2015-02-17T19:17:47.933Z,101241
2015-02-17T19:18:06.245Z,101241
2015-02-17T19:18:24.574Z,101241
2015-02-17T19:18:42.886Z,101247
2015-02-17T19:19:01.217Z,101247
2015-02-17T19:19:18.873Z,101241
2015-02-17T19:19:37.186Z,101253
2015-02-17T19:19:55.500Z,101241
2015-02-17T19:20:13.969Z,101253
2015-02-17T19:20:31.625Z,101232
2015-02-17T19:20:49.938Z,101244
2015-02-17T19:21:08.268Z,101253
2015-02-17T19:21:25.940Z,101241
2015-02-17T19:21:44.252Z,101241
2015-02-17T19:22:01.927Z,101238
2015-02-17T19:22:20.380Z,101247
2015-02-17T19:22:38.709Z,101256
2015-02-17T19:22:57.021Z,101247
2015-02-17T19:23:15.351Z,101241
2015-02-17T19:23:33.789Z,101247
2015-02-17T19:23:51.476Z,101241
2015-02-17T19:24:09.134Z,101235
2015-02-17T19:24:26.806Z,101241
2015-02-17T19:24:45.119Z,101232
2015-02-17T19:25:03.447Z,101235
2015-02-17T19:25:21.762Z,101247
2015-02-17T19:25:40.091Z,101247
2015-02-17T19:25:58.403Z,101256
2015-02-17T19:26:16.718Z,101247
2015-02-17T19:26:35.046Z,101253
2015-02-17T19:26:53.374Z,101241
2015-02-17T19:27:11.686Z,101247
2015-02-17T19:27:30.017Z,101259
2015-02-17T19:27:48.330Z,101244
2015-02-17T19:28:06.658Z,101250
2015-02-17T19:28:24.974Z,101250
2015-02-17T19:28:43.286Z,101253
2015-02-17T19:29:01.614Z,101247
2015-02-17T19:29:19.927Z,101247
2015-02-17T19:29:38.257Z,101244
2015-02-17T19:29:56.569Z,101241
2015-02-17T19:30:14.241Z,101247
2015-02-17T19:30:32.557Z,101256
2015-02-17T19:30:50.885Z,101247
2015-02-17T19:31:09.197Z,101256
2015-02-17T19:31:26.869Z,101247
2015-02-17T19:31:44.543Z,101250
2015-02-17T19:32:02.856Z,101247
2015-02-17T19:32:21.168Z,101253
2015-02-17T19:32:39.498Z,101259
2015-02-17T19:32:56.529Z,101261
2015-02-17T19:33:14.826Z,101247
2015-02-17T19:33:33.154Z,101247
2015-02-17T19:33:51.470Z,101247
2015-02-17T19:34:09.782Z,101247
2015-02-17T19:34:28.095Z,101253
2015-02-17T19:34:46.425Z,101250
2015-02-17T19:35:04.738Z,101250
2015-02-17T19:35:23.050Z,101255
2015-02-17T19:35:41.378Z,101253
2015-02-17T19:35:59.709Z,101253
2015-02-17T19:36:17.366Z,101261
2015-02-17T19:36:35.694Z,101255
2015-02-17T19:36:54.008Z,101264
2015-02-17T19:37:12.336Z,101253
2015-02-17T19:37:30.664Z,101255
2015-02-17T19:37:48.977Z,101261
2015-02-17T19:38:07.307Z,101255
2015-02-17T19:38:25.620Z,101258
2015-02-17T19:38:43.948Z,101261
2015-02-17T19:39:02.279Z,101267
2015-02-17T19:39:20.591Z,101258
2015-02-17T19:39:38.904Z,101267
2015-02-17T19:39:57.216Z,101267
2015-02-17T19:40:15.546Z,101270
2015-02-17T19:40:33.859Z,101267
2015-02-17T19:40:52.171Z,101267
2015-02-17T19:41:10.503Z,101264
2015-02-17T19:41:28.815Z,101279
2015-02-17T19:41:47.143Z,101267
2015-02-17T19:42:05.456Z,101267
2015-02-17T19:42:23.786Z,101267
2015-02-17T19:42:42.098Z,101273
2015-02-17T19:42:59.755Z,101276
2015-02-17T19:43:18.070Z,101273
2015-02-17T19:43:36.398Z,101270
2015-02-17T19:43:54.070Z,101276
2015-02-17T19:44:12.383Z,101279
2015-02-17T19:44:30.713Z,101279
2015-02-17T19:44:48.369Z,101270
2015-02-17T19:45:06.681Z,101279
2015-02-17T19:45:25.013Z,101273
2015-02-17T19:45:43.325Z,101273
2015-02-17T19:46:01.653Z,101273
2015-02-17T19:46:19.966Z,101279
2015-02-17T19:46:38.296Z,101276
2015-02-17T19:46:56.608Z,101282
2015-02-17T19:47:14.280Z,101273
2015-02-17T19:47:32.610Z,101284
2015-02-17T19:47:51.048Z,101279
2015-02-17T19:48:09.517Z,101267
2015-02-17T19:48:27.829Z,101279
2015-02-17T19:48:46.145Z,101279
2015-02-17T19:49:03.816Z,101290
2015-02-17T19:49:22.145Z,101290
2015-02-17T19:49:40.459Z,101284
2015-02-17T19:49:58.787Z,101273
2015-02-17T19:50:17.100Z,101290
2015-02-17T19:50:35.428Z,101287
2015-02-17T19:50:53.759Z,101287
2015-02-17T19:51:12.087Z,101290
2015-02-17T19:51:30.384Z,101287
2015-02-17T19:51:48.714Z,101284
2015-02-17T19:52:07.027Z,101290
2015-02-17T19:52:25.355Z,101287
2015-02-17T19:52:43.683Z,101284
2015-02-17T19:53:01.998Z,101282
2015-02-17T19:53:20.311Z,101287
2015-02-17T19:53:38.639Z,101287
2015-02-17T19:53:56.969Z,101290
2015-02-17T19:54:15.282Z,101293
2015-02-17T19:54:33.594Z,101287
2015-02-17T19:54:51.266Z,101290
2015-02-17T19:55:09.721Z,101287
2015-02-17T19:55:27.377Z,101287
2015-02-17T19:55:45.690Z,101293
2015-02-17T19:56:03.365Z,101302
2015-02-17T19:56:21.693Z,101293
2015-02-17T19:56:40.005Z,101287
2015-02-17T19:56:58.458Z,101279
2015-02-17T19:57:16.790Z,101293
2015-02-17T19:57:35.102Z,101287
2015-02-17T19:57:53.415Z,101302
2015-02-17T19:58:11.088Z,101302
2015-02-17T19:58:29.401Z,101302
2015-02-17T19:58:47.729Z,101302
2015-02-17T19:59:06.042Z,101296
2015-02-17T19:59:24.356Z,101299
2015-02-17T19:59:42.684Z,101293
2015-02-17T20:00:00.997Z,101302
2015-02-17T20:00:18.675Z,101282
2015-02-17T20:00:36.987Z,101293